createdAt,value
2022-09-15T00:02:49.882Z,42
2022-09-15T00:08:08.428Z,42.9
2022-09-15T00:13:27.187Z,42.3
2022-09-15T00:18:45.578Z,42.5
2022-09-15T00:24:03.753Z,43.2
2022-09-15T00:29:22.230Z,42.8
2022-09-15T00:34:40.727Z,43.5
2022-09-15T00:39:58.826Z,42.6
2022-09-15T00:45:17.409Z,42.7
2022-09-15T00:50:36.008Z,42.2
2022-09-15T00:55:54.517Z,42.7
2022-09-15T01:01:13.639Z,43.1
2022-09-15T01:06:32.248Z,43.8
2022-09-15T01:11:50.165Z,43.8
2022-09-15T01:17:08.656Z,42.3
2022-09-15T01:22:26.886Z,43.2
2022-09-15T01:27:45.070Z,43.5
2022-09-15T01:33:03.548Z,43.7
2022-09-15T01:38:22.069Z,43.5
2022-09-15T01:43:40.521Z,42.2
2022-09-15T01:48:59.287Z,42.4
2022-09-15T01:54:17.800Z,42.4
2022-09-15T01:59:36.257Z,43.3
2022-09-15T02:04:54.471Z,42.5
2022-09-15T02:10:13.267Z,43.4
2022-09-15T02:15:31.997Z,43.5
2022-09-15T02:20:50.483Z,42.7
2022-09-15T02:26:08.707Z,42.4
2022-09-15T02:31:27.092Z,43.5
2022-09-15T02:36:45.551Z,43.1
2022-09-15T02:42:03.787Z,43.5
2022-09-15T02:47:22.253Z,42.8
2022-09-15T02:52:40.456Z,42.9
2022-09-15T02:57:59.007Z,42.4
2022-09-15T03:03:17.163Z,42.4
2022-09-15T03:08:35.363Z,42.4
2022-09-15T03:13:53.482Z,43.4
2022-09-15T03:19:11.932Z,42.9
2022-09-15T03:24:30.422Z,43.7
2022-09-15T03:29:48.783Z,42.4
2022-09-15T03:35:07.246Z,43.3
2022-09-15T03:40:25.754Z,43.2
2022-09-15T03:45:44.425Z,42.3
2022-09-15T03:51:03.160Z,42.3
2022-09-15T03:56:21.647Z,43.2
2022-09-15T04:01:40.421Z,42.4
2022-09-15T04:06:58.621Z,42.4
2022-09-15T04:12:16.813Z,42.5
2022-09-15T04:17:35.327Z,42.6
2022-09-15T04:22:53.500Z,42.6
2022-09-15T04:28:12.261Z,42
2022-09-15T04:33:30.625Z,42.7
2022-09-15T04:38:49.071Z,43
2022-09-15T04:44:07.846Z,43.4
2022-09-15T04:49:26.080Z,43.2
2022-09-15T04:54:44.524Z,43.2
2022-09-15T05:00:03.002Z,42.5
2022-09-15T05:05:21.247Z,42.5
2022-09-15T05:10:39.704Z,42.4
2022-09-15T05:15:57.850Z,41.9
2022-09-15T05:21:16.286Z,42.2
2022-09-15T05:26:34.734Z,42.3
2022-09-15T05:31:53.525Z,43.1
2022-09-15T05:37:12.060Z,42.7
2022-09-15T05:42:30.564Z,42.2
2022-09-15T05:47:49.213Z,42.8
2022-09-15T05:53:07.911Z,42.2
2022-09-15T05:58:26.377Z,42
2022-09-15T06:03:45.136Z,41.5
2022-09-15T06:09:04.436Z,42.1
2022-09-15T06:14:23.097Z,42.6
2022-09-15T06:19:41.580Z,43
2022-09-15T06:25:00.085Z,42.8
2022-09-15T06:30:18.537Z,41.1
2022-09-15T06:35:36.739Z,41.6
2022-09-15T06:40:55.255Z,40.8
2022-09-15T06:46:13.376Z,41.7
2022-09-15T06:51:31.401Z,42
2022-09-15T06:56:49.651Z,42.1
2022-09-15T07:02:08.310Z,42.1
2022-09-15T07:07:26.850Z,42
2022-09-15T07:12:45.355Z,42
2022-09-15T07:18:03.538Z,40.9
2022-09-15T07:23:22.016Z,40.2
2022-09-15T07:28:40.520Z,40.4
2022-09-15T07:33:58.708Z,39.9
2022-09-15T07:39:16.908Z,40.6
2022-09-15T07:44:35.417Z,40
2022-09-15T07:49:53.877Z,39.9
2022-09-15T07:55:11.808Z,39.9
2022-09-15T08:00:30.800Z,40.7
2022-09-15T08:05:49.372Z,40.6
2022-09-15T08:11:08.124Z,39.4
2022-09-15T08:16:26.692Z,39.6
2022-09-15T08:21:44.914Z,40.4
2022-09-15T08:27:03.672Z,39.3
2022-09-15T08:32:22.469Z,40.1
2022-09-15T08:37:41.205Z,40
2022-09-15T08:42:59.687Z,39.9
2022-09-15T08:48:18.191Z,39.9
2022-09-15T08:53:36.653Z,40.8
2022-09-15T08:58:54.843Z,39.8
2022-09-15T09:04:18.429Z,40.4
2022-09-15T09:09:36.583Z,39.8
2022-09-15T09:14:54.780Z,40.1
2022-09-15T09:20:13.008Z,40.2
2022-09-15T09:25:31.472Z,40
2022-09-15T09:30:50.341Z,39.3
2022-09-15T09:36:08.855Z,40
2022-09-15T09:41:27.110Z,39.4
2022-09-15T09:46:45.585Z,40.3
2022-09-15T09:52:03.934Z,39.3
2022-09-15T09:57:22.652Z,39.7
2022-09-15T10:02:41.137Z,39.4
2022-09-15T10:07:59.650Z,40.2
2022-09-15T10:13:18.112Z,40.1
2022-09-15T10:18:36.600Z,39.9
2022-09-15T10:23:55.069Z,39.8
2022-09-15T10:29:13.230Z,39.5
2022-09-15T10:34:31.736Z,40.5
2022-09-15T10:39:50.122Z,40.3
2022-09-15T10:45:08.675Z,40.8
2022-09-15T10:50:26.879Z,41
2022-09-15T10:55:54.541Z,39.8
2022-09-15T11:01:12.807Z,40.3
2022-09-15T11:06:30.991Z,40.3
2022-09-15T11:11:49.213Z,40.4
2022-09-15T11:17:07.693Z,38.8
2022-09-15T11:22:25.873Z,39
2022-09-15T11:27:44.693Z,38
2022-09-15T11:33:03.434Z,39.7
2022-09-15T11:38:22.193Z,39
2022-09-15T11:43:40.761Z,38.5
2022-09-15T11:48:59.298Z,37.4
2022-09-15T11:54:18.048Z,36.6
2022-09-15T11:59:36.280Z,39.2
2022-09-15T12:04:54.731Z,38.7
2022-09-15T12:10:13.210Z,40
2022-09-15T12:15:31.448Z,39.7
2022-09-15T12:20:49.903Z,38.7
2022-09-15T12:26:07.838Z,37.8
2022-09-15T12:31:26.672Z,37.6
2022-09-15T12:36:44.879Z,37.6
2022-09-15T12:42:03.360Z,38.2
2022-09-15T12:47:21.874Z,38.7
2022-09-15T12:52:40.344Z,39.4
2022-09-15T12:57:59.101Z,38.6
2022-09-15T13:03:17.583Z,39.1
2022-09-15T13:08:36.053Z,37.2
2022-09-15T13:13:54.079Z,39.3
2022-09-15T13:19:12.026Z,38.8
2022-09-15T13:24:29.924Z,38.2
2022-09-15T13:29:48.127Z,39.1
2022-09-15T13:35:20.802Z,39
2022-09-15T13:40:39.737Z,38.8
2022-09-15T13:45:58.175Z,37.9
2022-09-15T13:51:16.442Z,39
2022-09-15T13:56:34.346Z,39
2022-09-15T14:01:54.223Z,39.2
2022-09-15T14:12:31.713Z,39.3
2022-09-15T14:17:50.192Z,38.7
2022-09-15T14:23:08.419Z,38.8
2022-09-15T14:28:32.281Z,38.2
2022-09-15T14:33:50.175Z,37.7
2022-09-15T14:39:08.736Z,38
2022-09-15T14:51:15.551Z,37.5
2022-09-15T14:56:33.808Z,37.2
2022-09-15T15:01:52.184Z,36.8
2022-09-15T15:07:10.671Z,36.7
2022-09-15T15:12:28.631Z,36.2
2022-09-15T15:17:47.092Z,36.9
2022-09-15T15:23:05.570Z,37
2022-09-15T15:28:24.083Z,36.4
2022-09-15T15:33:42.349Z,35.7
2022-09-15T15:39:01.167Z,36.7
2022-09-15T15:44:19.653Z,37.7
2022-09-15T15:50:14.823Z,38
2022-09-15T15:55:33.548Z,37
2022-09-15T16:00:52.717Z,36.4
2022-09-15T16:06:11.279Z,36.5
2022-09-15T16:11:29.767Z,37.8
2022-09-15T16:16:48.550Z,37.1
2022-09-15T16:21:51.382Z,37.2
2022-09-15T16:27:09.992Z,36.4
2022-09-15T16:32:28.507Z,37.6
2022-09-15T16:37:46.685Z,37.9
2022-09-15T16:43:05.444Z,37.6
2022-09-15T16:48:23.962Z,37.6
2022-09-15T16:53:42.715Z,37.9
2022-09-15T16:59:01.626Z,37.3
2022-09-15T17:04:20.289Z,37.9
2022-09-15T17:09:38.733Z,38.9
2022-09-15T17:14:57.463Z,38.2
2022-09-15T17:20:15.982Z,38.9
2022-09-15T17:25:34.701Z,37.9
2022-09-15T17:30:53.128Z,37.9
2022-09-15T17:36:11.612Z,38.1
2022-09-15T17:41:30.048Z,39.2
2022-09-15T17:46:48.713Z,39.2
2022-09-15T17:52:07.621Z,39.2
2022-09-15T17:57:25.770Z,38.4
2022-09-15T18:02:44.519Z,38.4
2022-09-15T18:08:03.081Z,38.3
2022-09-15T18:13:21.228Z,39.6
2022-09-15T18:18:39.680Z,38.9
2022-09-15T18:23:58.418Z,40
2022-09-15T18:29:16.602Z,39.8
2022-09-15T18:34:35.197Z,38.7
2022-09-15T18:39:53.616Z,38.1
2022-09-15T18:45:11.830Z,38.6
2022-09-15T18:50:30.586Z,38.4
2022-09-15T18:55:49.092Z,37.8
2022-09-15T19:01:08.228Z,38
2022-09-15T19:06:26.832Z,38.8
2022-09-15T19:11:45.615Z,38.4
2022-09-15T19:17:04.077Z,38.9
2022-09-15T19:22:22.255Z,39
2022-09-15T19:27:40.760Z,39.2
2022-09-15T19:32:58.649Z,40
2022-09-15T19:38:17.411Z,39.9
2022-09-15T19:43:36.155Z,40.4
2022-09-15T19:48:54.552Z,40.2
2022-09-15T19:53:57.546Z,39.4
2022-09-15T19:59:16.345Z,40.8
2022-09-15T20:04:35.083Z,40.7
2022-09-15T20:09:53.836Z,40.1
2022-09-15T20:15:12.081Z,39.7
2022-09-15T20:20:30.539Z,40.5
2022-09-15T20:25:49.305Z,39.6
2022-09-15T20:31:08.042Z,40.5
2022-09-15T20:36:26.228Z,39.8
2022-09-15T20:41:45.187Z,40.5
2022-09-15T20:47:04.072Z,40.9
2022-09-15T20:52:22.253Z,40.5
2022-09-15T20:57:40.555Z,40.2
2022-09-15T21:02:59.069Z,41
2022-09-15T21:08:17.522Z,41.1
2022-09-15T21:13:36.285Z,40.4
2022-09-15T21:18:54.833Z,41.1
2022-09-15T21:24:12.979Z,40.6
2022-09-15T21:29:31.704Z,41.1
2022-09-15T21:34:49.882Z,41.3
2022-09-15T21:40:07.906Z,41.4
2022-09-15T21:45:26.124Z,41.4
2022-09-15T21:50:44.339Z,40.6
2022-09-15T21:56:02.241Z,40.6
2022-09-15T22:01:21.106Z,40.8
2022-09-15T22:06:39.770Z,40.9
2022-09-15T22:11:57.936Z,40.8
2022-09-15T22:17:16.425Z,40.8
2022-09-15T22:22:34.691Z,40.9
2022-09-15T22:27:52.574Z,41.7
2022-09-15T22:33:11.342Z,41.5
2022-09-15T22:38:29.583Z,42
2022-09-15T22:43:48.041Z,42.3
2022-09-15T22:49:06.803Z,42.1
2022-09-15T22:54:25.027Z,41.5
2022-09-15T22:59:43.758Z,41.9
2022-09-15T23:05:01.696Z,44.1
2022-09-15T23:10:20.168Z,43.1
2022-09-15T23:15:38.575Z,42
2022-09-15T23:20:57.316Z,42.2
2022-09-15T23:26:15.838Z,42.1
2022-09-15T23:31:34.547Z,42.1
2022-09-15T23:36:53.039Z,42.8
2022-09-15T23:42:19.216Z,42.3
2022-09-15T23:47:37.774Z,42.9
2022-09-15T23:52:56.003Z,43
2022-09-15T23:58:14.504Z,43.6
